Brisbane, Queensland, Australia, Latitude 27°S 23' 52", Longitude 152° E 55' 35", Elevation 76 m

Sat 23 Jan 2021 11:40:02 am: Temperature: 28.4 °C, Humidity: 56 %, Wind speed: 7 km/h, Wind Gust: 15 km/h, Rain today: 0.0 mm, MSLP: 1014.4 hPa

Website under continual development from 10 years of weather data. Please contact us if you find issues or like to provide feedback.

Recent Observations

This page presents the weather data from the last 72 hours at 30 minute intervals.

Last updated at 11:40:02 am AEST on Sat 23 January 2021.

Last 24 hours
Date/Time(AEST) Temp. ( °C) Dew Point ( °C) Relative Humidity (%) Apparent Temp. ( °C) Wind Direction Wind Speed (kph) Wind Gust (kph) Wind Speed (kts) Wind Gust (kts) MSL Pressure (hPa) Rain since midnight (mm)
23/01 11:40 am 28.4 18.8 56 30.2 ENE 7 15 4 8 1014.4 0.0
23/01 11:10 am 28.3 18.9 57 28 ENE 5 12 3 6 1014.6 0.0
23/01 10:40 am 28.4 19.1 57 28.2 ENE 5 12 3 6 1014.7 0.0
23/01 10:10 am 28.8 19.0 56 27.2 NE 7 12 4 6 1014.9 0.0
23/01 9:40 am 28.3 18.8 56 26.5 E 7 14 4 8 1014.6 0.0
23/01 9:10 am 27.3 19.2 62 28.6 SSE 3 8 2 4 1014.7 0.0
23/01 8:40 am 25.3 18.6 67 27.7 S 1 6 1 3 1014.6 0.0
23/01 8:10 am 25.1 19.2 70 26.3 S 3 8 2 4 1014.7 0.0
23/01 7:40 am 23.6 19.2 77 24.9 SE 3 8 2 4 1014.7 0.0
23/01 7:10 am 21.8 18.7 82 22.7 S 3 8 2 4 1014.6 0.0
23/01 6:40 am 20.1 17.9 88 22.2 SSW 1 6 1 3 1014.2 0.0
23/01 6:10 am 18.6 17.3 92 21.1 CALM 0 0 0 0 1014.0 0.0
23/01 5:40 am 17.6 16.4 93 19.8 CALM 0 0 0 0 1013.6 0.0
23/01 5:10 am 17.6 16.4 93 19.8 CALM 0 0 0 0 1013.5 0.0
23/01 4:40 am 17.8 16.5 92 20 CALM 0 0 0 0 1013.0 0.0
23/01 4:10 am 18.2 16.7 91 20.5 CALM 0 0 0 0 1012.9 0.0
23/01 3:40 am 18.6 16.9 90 20.9 CALM 0 0 0 0 1012.6 0.0
23/01 3:10 am 19.2 17.2 88 21.6 CALM 0 0 0 0 1012.5 0.0
23/01 2:40 am 19.7 17.3 86 22.2 CALM 0 0 0 0 1012.5 0.0
23/01 2:10 am 19.7 17.6 88 22.3 CALM 0 0 0 0 1012.6 0.0
23/01 1:40 am 19.4 17.2 87 21.9 CALM 0 0 0 0 1012.8 0.0
23/01 1:10 am 19.1 16.9 87 21.4 CALM 0 0 0 0 1013.0 0.0
23/01 12:40 am 19.5 17.0 86 21.9 CALM 0 0 0 0 1013.1 0.0
23/01 12:10 am 19.9 17.2 84 22.3 CALM 0 0 0 0 1013.4 0.0
22/01 11:40 pm 20.3 17.3 83 22.8 CALM 0 0 0 0 1013.7 0.0
22/01 11:10 pm 20.4 17.3 82 22.9 CALM 0 0 0 0 1013.8 0.0
22/01 10:40 pm 20.7 17.2 81 23.2 CALM 0 0 0 0 1013.9 0.0
22/01 10:10 pm 21.2 17.3 79 23.7 CALM 0 0 0 0 1014.0 0.0
22/01 9:40 pm 21.7 17.4 77 24.3 CALM 0 0 0 0 1013.9 0.0
22/01 9:10 pm 22.3 17.6 75 24.9 CALM 0 0 0 0 1013.8 0.0
22/01 8:40 pm 22.6 17.5 73 25.2 CALM 1 2 1 1 1013.5 0.0
22/01 8:10 pm 23.2 17.3 70 25.1 NNW 1 2 1 1 1013.5 0.0
22/01 7:40 pm 23.6 17.3 68 22.6 N 5 10 3 5 1013.3 0.0
22/01 7:10 pm 23.9 17.2 66 23.5 NNE 4 12 2 6 1013.2 0.0
22/01 6:40 pm 24.6 16.8 62 21.3 NNE 8 14 4 8 1012.6 0.0
22/01 6:10 pm 25.3 17.1 61 21.5 NNE 9 15 5 8 1012.3 0.0
22/01 5:40 pm 26.4 17.7 59 23.5 NNE 8 14 4 8 1011.7 0.0
22/01 5:10 pm 27.1 18.0 58 25.7 NNE 6 14 3 8 1011.5 0.0
22/01 4:40 pm 27.4 17.7 56 25.9 NE 6 15 3 8 1011.5 0.0
22/01 4:10 pm 27.2 17.2 55 25.5 NE 6 17 3 9 1011.7 0.0
22/01 3:40 pm 27.6 17.0 53 24.4 NNE 8 19 4 10 1011.5 0.0
22/01 3:10 pm 28.8 17.7 51 26.5 NNE 7 15 4 8 1011.5 0.0
22/01 2:40 pm 28.3 17.1 51 25.9 NNE 7 17 4 9 1011.8 0.0
22/01 2:10 pm 28.9 17.7 51 26 ENE 8 15 4 8 1012.2 0.0
22/01 1:40 pm 28.3 17.4 52 26.7 NE 6 17 3 9 1012.6 0.0
22/01 1:10 pm 28.2 16.6 49 25.5 E 7 19 4 10 1012.9 0.0
22/01 12:40 pm 27.1 17.1 54 27.4 ENE 3 6 2 3 1013.4 0.0
22/01 12:10 pm 28.4 17.9 53 28.3 NE 4 10 2 5 1013.9 0.0
24 to 48 hours ago
Date/Time(AEST) Temp. °C Dew Point °C Relative Humidity % Appararent Temp. °C Wind Direction Wind Speed (kph) Wind Gust (kph) Wind Speed (kts) Wind Gust (kts) MSL Pressure (hPa) Rain since midnight (mm)
22/01 11:40 am 27.8 17.4 53 27.5 N 4 10 2 5 1014.0 0.0
22/01 11:10 am 27.7 17.4 54 27.5 WNW 4 10 2 5 1014.1 0.0
22/01 10:40 am 25.7 17.1 59 23.9 N 6 10 3 5 1014.5 0.0
22/01 10:10 am 26.7 17.1 56 27.8 NE 2 14 1 8 1014.7 0.0
22/01 9:40 am 26.9 17.1 55 25.1 NE 6 8 3 4 1014.9 0.0
22/01 9:10 am 25.9 17.3 59 25.6 NE 4 10 2 5 1015.1 0.0
22/01 8:40 am 25.9 18.1 62 26.6 ENE 3 10 2 5 1014.8 0.0
22/01 8:10 am 23.4 18.3 73 24.2 SSE 3 10 2 5 1015.0 0.0
22/01 7:40 am 21.4 16.9 75 22.3 SW 2 6 1 3 1014.9 0.0
22/01 7:10 am 20.9 16.9 78 21.1 SSW 3 10 2 5 1015.0 0.0
22/01 6:40 am 19.6 16.7 83 21.8 SSW 0 4 0 2 1014.9 0.0
22/01 6:10 am 18.5 16.5 88 20.7 CALM 0 0 0 0 1014.7 0.0
22/01 5:40 am 17.8 16.6 92 20 CALM 0 0 0 0 1014.6 0.0
22/01 5:10 am 17.1 16.0 94 19.1 CALM 0 0 0 0 1014.6 0.0
22/01 4:40 am 16.7 15.6 93 18.5 CALM 0 0 0 0 1014.3 0.0
22/01 4:10 am 16.8 15.6 92 18.6 CALM 0 0 0 0 1014.2 0.0
22/01 3:40 am 17.0 15.7 92 18.9 CALM 0 0 0 0 1014.1 0.0
22/01 3:10 am 17.2 15.7 91 19.1 CALM 0 0 0 0 1014.0 0.0
22/01 2:40 am 17.6 15.9 90 19.6 CALM 0 0 0 0 1014.1 0.0
22/01 2:10 am 18.1 16.2 89 20.2 CALM 0 0 0 0 1014.2 0.0
22/01 1:40 am 18.6 16.4 87 20.7 CALM 0 0 0 0 1014.5 0.0
22/01 1:10 am 19.0 16.6 86 21.2 CALM 0 0 0 0 1014.5 0.0
22/01 12:40 am 19.4 16.7 85 21.7 CALM 0 0 0 0 1014.9 0.0
22/01 12:10 am 19.6 16.7 84 21.9 CALM 0 0 0 0 1015.2 0.0
21/01 11:40 pm 20.3 17.2 82 22.7 CALM 0 0 0 0 1015.5 0.0
21/01 11:10 pm 21.1 17.3 79 23.6 CALM 0 0 0 0 1015.6 0.0
21/01 10:40 pm 21.4 17.3 77 23.9 CALM 0 0 0 0 1015.8 0.0
21/01 10:10 pm 22.1 17.6 75 24.7 CALM 0 0 0 0 1015.8 0.0
21/01 9:40 pm 22.6 16.8 70 24.9 E 0 4 0 2 1015.9 0.0
21/01 9:10 pm 22.6 16.7 70 24.9 E 0 4 0 2 1015.9 0.0
21/01 8:40 pm 22.7 16.9 70 23.7 E 0 2 0 1 1015.5 0.0
21/01 8:10 pm 22.6 16.9 70 24.9 CALM 0 2 0 1 1015.5 0.0
21/01 7:40 pm 22.8 16.8 69 23 ENE 3 8 2 4 1015.4 0.0
21/01 7:10 pm 23.2 16.7 67 22.7 ENE 4 14 2 8 1015.3 0.0
21/01 6:40 pm 23.6 16.8 66 25.2 ENE 1 6 1 3 1015.3 0.0
21/01 6:10 pm 23.8 16.8 65 23.3 ENE 4 14 2 8 1015.3 0.0
21/01 5:40 pm 24.1 16.7 63 23.5 ENE 4 12 2 6 1015.2 0.0
21/01 5:10 pm 24.4 16.9 63 23.9 ENE 4 14 2 8 1014.8 0.0
21/01 4:40 pm 24.6 16.9 62 21.3 ENE 8 19 4 10 1014.7 0.0
21/01 4:10 pm 24.9 17.0 62 25.2 NE 3 10 2 5 1014.9 0.0
21/01 3:40 pm 25.1 17.1 61 23.3 ENE 6 14 3 8 1015.1 0.0
21/01 3:10 pm 25.6 17.1 60 23.9 ENE 6 14 3 8 1015.3 0.0
21/01 2:40 pm 25.1 17.3 62 22 ENE 8 15 4 8 1015.6 0.0
21/01 2:10 pm 25.5 17.7 62 23.3 E 7 14 4 8 1015.9 0.0
21/01 1:40 pm 26.4 18.1 60 24.3 E 7 14 4 8 1016.2 0.0
21/01 1:10 pm 25.7 17.8 62 23.5 E 7 15 4 8 1016.6 0.0
21/01 12:40 pm 25.7 17.8 62 24.2 ESE 6 15 3 8 1016.8 0.0
21/01 12:10 pm 25.9 18.0 62 23.1 ENE 8 19 4 10 1017.0 0.0
48 to 72 hours ago
Date/Time(AEST) Temp. °C Dew Point °C Relative Humidity % Appararent Temp. °C Wind Direction Wind Speed (kph) Wind Gust (kph) Wind Speed (kts) Wind Gust (kts) MSL Pressure (hPa) Rain since midnight (mm)
21/01 11:40 am 26.1 18.2 62 24.8 E 6 14 3 8 1017.3 0.0
21/01 11:10 am 25.8 18.8 65 25.4 E 5 12 3 6 1017.7 0.0
21/01 10:40 am 25.2 18.7 67 27.6 ENE 1 4 1 2 1018.3 0.0
21/01 10:10 am 24.4 18.4 70 26 E 2 6 1 3 1018.6 0.0
21/01 9:40 am 24.8 18.4 67 23.5 ENE 6 12 3 6 1018.6 0.0
21/01 9:10 am 23.4 18.3 73 23.5 SSE 4 12 2 6 1018.6 0.0
21/01 8:40 am 24.3 18.3 69 23 SE 6 14 3 8 1018.5 0.0
21/01 8:10 am 24.1 18.7 72 23.7 E 5 12 3 6 1018.4 0.0
21/01 7:40 am 22.7 18.5 77 22.2 E 5 15 3 8 1018.2 0.0
21/01 7:10 am 20.9 18.2 84 23 S 1 4 1 2 1018.4 0.0
21/01 6:40 am 20.4 18.0 86 21.8 SSE 2 8 1 4 1018.5 0.0
21/01 6:10 am 19.8 17.6 87 21.7 S 1 6 1 3 1018.2 0.0
21/01 5:40 am 19.4 17.4 88 21.9 CALM 0 2 0 1 1017.7 0.0
21/01 5:10 am 19.6 17.4 87 22.1 CALM 0 2 0 1 1017.3 0.0
21/01 4:40 am 19.9 17.4 86 22.5 CALM 0 2 0 1 1017.0 0.0
21/01 4:10 am 20.3 17.6 84 22.9 S 0 2 0 1 1017.0 0.0
21/01 3:40 am 20.4 17.5 83 22.2 SSE 1 4 1 2 1016.7 0.0
21/01 3:10 am 20.6 17.6 83 22.5 SSW 1 4 1 2 1016.6 0.0
21/01 2:40 am 20.6 17.5 82 23.1 CALM 0 0 0 0 1016.6 0.0
21/01 2:10 am 20.9 17.7 82 22.2 SE 2 10 1 5 1016.7 0.0
21/01 1:40 am 20.9 17.8 82 22.9 SSE 1 6 1 3 1016.8 0.0
21/01 1:10 am 20.8 17.7 82 22 SSE 2 8 1 4 1016.9 0.0
21/01 12:40 am 20.9 17.8 83 23.7 CALM 0 2 0 1 1017.2 0.0
21/01 12:10 am 20.9 17.8 83 23 S 1 6 1 3 1017.5 0.0
20/01 11:40 pm 20.8 17.7 82 23.4 SSW 0 4 0 2 1017.9 0.0
20/01 11:10 pm 20.8 17.7 82 22.7 SSW 1 4 1 2 1018.3 0.0
20/01 10:40 pm 21.3 17.8 81 22.7 SSE 2 6 1 3 1018.7 0.0
20/01 10:10 pm 21.8 17.9 78 22.4 SSE 3 10 2 5 1019.0 0.0
20/01 9:40 pm 22.4 17.7 75 23 SE 3 10 2 5 1019.1 0.0
20/01 9:10 pm 22.3 17.3 74 23.5 E 2 6 1 3 1018.9 0.0
20/01 8:40 pm 22.3 17.4 74 24.9 CALM 3 14 2 8 1018.7 0.0
20/01 8:10 pm 22.6 17.5 73 23.1 E 3 14 2 8 1018.7 0.0
20/01 7:40 pm 22.8 17.5 72 23.3 ESE 3 10 2 5 1018.5 0.0
20/01 7:10 pm 23.1 17.6 71 21.5 E 6 15 3 8 1018.3 0.0
20/01 6:40 pm 23.4 17.8 71 22.6 E 5 12 3 6 1017.9 0.0
20/01 6:10 pm 24.2 18.3 70 22.3 E 7 14 4 8 1017.5 0.0
20/01 5:40 pm 24.4 18.1 68 22.3 E 7 14 4 8 1017.2 0.0
20/01 5:10 pm 25.4 18.1 64 21.2 E 10 17 5 9 1016.9 0.0
20/01 4:40 pm 25.4 18.3 65 22 E 9 23 5 12 1016.7 0.0
20/01 4:10 pm 25.3 18.2 65 19.8 E 12 19 6 10 1016.7 0.0
20/01 3:40 pm 25.6 18.3 64 22.2 E 9 19 5 10 1016.8 0.0
20/01 3:10 pm 25.7 18.9 66 23.3 E 8 15 4 8 1016.8 0.0
20/01 2:40 pm 25.7 18.9 66 22.6 E 9 21 5 11 1017.1 0.0
20/01 2:10 pm 25.2 19.1 69 22.9 ESE 8 17 4 9 1017.4 0.0
20/01 1:40 pm 25.7 19.1 67 21.3 E 11 19 6 10 1017.6 0.0
20/01 1:10 pm 26.1 19.3 66 19.6 E 14 27 8 15 1017.8 0.0
20/01 12:40 pm 26.9 19.4 64 22.7 E 11 19 6 10 1017.8 0.0
20/01 12:10 pm 26.8 20.1 67 25.7 E 7 14 4 8 1018.2 0.0